createdAt,value
2019-01-16T00:03:08.718Z,5.93
2019-01-16T00:06:49.643Z,5.77
2019-01-16T00:10:10.895Z,7.47
2019-01-16T00:13:21.542Z,8.60
2019-01-16T00:16:34.731Z,7.87
2019-01-16T00:19:57.739Z,7.30
2019-01-16T00:23:29.101Z,7.90
2019-01-16T00:26:50.472Z,7.35
2019-01-16T00:30:11.891Z,7.75
2019-01-16T00:33:33.143Z,8.28
2019-01-16T00:37:10.942Z,7.60
2019-01-16T00:40:28.540Z,6.20
2019-01-16T00:44:05.935Z,7.87
2019-01-16T00:47:40.530Z,6.75
2019-01-16T00:50:58.113Z,7.87
2019-01-16T00:54:20.551Z,7.57
2019-01-16T00:57:41.763Z,8.05
2019-01-16T01:01:13.126Z,7.57
2019-01-16T01:04:34.239Z,7.30
2019-01-16T01:07:46.239Z,6.60
2019-01-16T01:11:11.819Z,6.63
2019-01-16T01:14:49.327Z,6.57
2019-01-16T01:18:03.766Z,6.63
2019-01-16T01:21:24.703Z,6.57
2019-01-16T01:24:46.132Z,6.33
2019-01-16T01:28:08.693Z,7.10
2019-01-16T01:31:43.168Z,7.08
2019-01-16T01:35:04.611Z,6.90
2019-01-16T01:38:26.223Z,7.97
2019-01-16T01:42:07.111Z,6.77
2019-01-16T01:45:28.843Z,6.17
2019-01-16T01:48:57.339Z,7.53
2019-01-16T01:52:19.113Z,5.70
2019-01-16T01:55:31.927Z,4.85
2019-01-16T01:59:00.169Z,6.35
2019-01-16T02:02:29.623Z,7.07
2019-01-16T02:05:50.786Z,7.05
2019-01-16T02:09:21.063Z,7.30
2019-01-16T02:12:42.879Z,8.00
2019-01-16T02:16:14.316Z,6.85
2019-01-16T02:19:46.098Z,7.53
2019-01-16T02:23:26.790Z,7.20
2019-01-16T02:26:49.326Z,8.77
2019-01-16T02:30:06.670Z,9.63
2019-01-16T02:33:38.147Z,9.88
2019-01-16T02:36:50.238Z,10.03
2019-01-16T02:40:11.574Z,10.30
2019-01-16T02:43:40.171Z,10.05
2019-01-16T02:47:08.639Z,10.30
2019-01-16T02:50:40.302Z,9.83
2019-01-16T02:54:01.640Z,10.60
2019-01-16T02:57:17.910Z,11.10
2019-01-16T03:00:38.995Z,11.28
2019-01-16T03:04:01.458Z,11.17
2019-01-16T03:07:20.196Z,11.70
2019-01-16T03:10:37.866Z,11.40
2019-01-16T03:14:06.313Z,9.70
2019-01-16T03:17:40.934Z,11.23
2019-01-16T03:21:09.560Z,11.57
2019-01-16T03:24:30.711Z,12.33
2019-01-16T03:27:53.266Z,10.47
2019-01-16T03:31:27.640Z,10.50
2019-01-16T03:34:56.514Z,10.03
2019-01-16T03:38:27.966Z,10.00
2019-01-16T03:41:49.661Z,8.20
2019-01-16T03:45:24.267Z,7.70
2019-01-16T03:48:51.166Z,9.90
2019-01-16T03:52:14.986Z,10.27
2019-01-16T03:55:29.179Z,10.37
2019-01-16T03:58:50.171Z,10.28
2019-01-16T04:02:16.242Z,10.27
2019-01-16T04:05:33.417Z,10.35
2019-01-16T04:08:54.555Z,9.95
2019-01-16T04:12:30.748Z,8.80
2019-01-16T04:16:02.523Z,9.60
2019-01-16T04:19:23.979Z,10.20
2019-01-16T04:22:51.194Z,9.85
2019-01-16T04:26:12.814Z,10.40
2019-01-16T04:29:33.778Z,9.70
2019-01-16T04:33:02.409Z,11.53
2019-01-16T04:36:27.890Z,11.87
2019-01-16T04:39:49.035Z,13.55
2019-01-16T04:43:09.251Z,12.93
2019-01-16T04:46:27.650Z,12.70
2019-01-16T04:49:36.225Z,14.50
2019-01-16T04:53:07.610Z,15.33
2019-01-16T04:56:42.129Z,15.03
2019-01-16T05:00:04.730Z,12.30
2019-01-16T05:03:26.901Z,12.50
2019-01-16T05:06:48.220Z,17.77
2019-01-16T05:10:09.555Z,17.37
2019-01-16T05:13:32.127Z,18.17
2019-01-16T05:17:06.923Z,20.27
2019-01-16T05:20:41.599Z,19.50
2019-01-16T05:24:02.758Z,12.73
2019-01-16T05:27:23.959Z,16.67
2019-01-16T05:30:58.472Z,18.37
2019-01-16T05:34:21.013Z,18.75
2019-01-16T05:37:55.541Z,16.30
2019-01-16T05:41:18.094Z,17.37
2019-01-16T05:44:44.894Z,16.85
2019-01-16T05:48:01.763Z,14.90
2019-01-16T05:51:22.643Z,14.40
2019-01-16T05:54:54.103Z,15.27
2019-01-16T05:58:12.786Z,14.40
2019-01-16T06:01:44.142Z,13.90
2019-01-16T06:05:18.649Z,11.03
2019-01-16T06:08:44.059Z,13.00
2019-01-16T06:12:09.453Z,14.77
2019-01-16T06:15:30.862Z,14.87
2019-01-16T06:18:44.466Z,14.50
2019-01-16T06:22:07.006Z,12.63
2019-01-16T06:25:32.389Z,14.03
2019-01-16T06:29:07.062Z,15.43
2019-01-16T06:32:32.475Z,11.57
2019-01-16T06:35:53.642Z,15.70
2019-01-16T06:39:16.758Z,16.70
2019-01-16T06:42:38.019Z,15.53
2019-01-16T06:46:12.706Z,17.17
2019-01-16T06:49:36.750Z,16.87
2019-01-16T06:52:57.936Z,17.13
2019-01-16T06:56:26.497Z,16.97
2019-01-16T06:59:39.421Z,17.97
2019-01-16T07:03:00.575Z,18.87
2019-01-16T07:06:21.818Z,18.63
2019-01-16T07:09:45.330Z,16.47
2019-01-16T07:13:25.762Z,18.50
2019-01-16T07:16:43.838Z,18.27
2019-01-16T07:20:09.829Z,17.30
2019-01-16T07:23:22.790Z,13.58
2019-01-16T07:26:45.038Z,16.03
2019-01-16T07:30:07.577Z,18.80
2019-01-16T07:33:39.058Z,19.77
2019-01-16T07:37:16.559Z,17.47
2019-01-16T07:40:36.327Z,18.37
2019-01-16T07:43:48.734Z,17.60
2019-01-16T07:47:09.831Z,18.02
2019-01-16T07:50:38.410Z,17.23
2019-01-16T07:54:00.403Z,18.55
2019-01-16T07:57:22.911Z,18.77
2019-01-16T08:00:45.458Z,20.37
2019-01-16T08:04:19.814Z,21.77
2019-01-16T08:07:33.746Z,16.90
2019-01-16T08:10:46.461Z,21.40
2019-01-16T08:14:08.998Z,22.93
2019-01-16T08:17:37.498Z,23.67
2019-01-16T08:20:58.537Z,23.92
2019-01-16T08:24:18.503Z,23.80
2019-01-16T08:27:39.978Z,17.87
2019-01-16T08:31:01.126Z,25.10
2019-01-16T08:34:22.430Z,24.00
2019-01-16T08:37:51.115Z,23.37
2019-01-16T08:41:28.634Z,24.40
2019-01-16T08:45:06.430Z,23.93
2019-01-16T08:48:38.068Z,24.92
2019-01-16T08:51:59.326Z,23.37
2019-01-16T08:55:10.998Z,22.20
2019-01-16T08:58:38.430Z,22.13
2019-01-16T09:01:59.982Z,23.45
2019-01-16T09:05:21.838Z,24.33
2019-01-16T09:08:43.191Z,24.03
2019-01-16T09:12:07.776Z,24.30
2019-01-16T09:15:39.440Z,20.97
2019-01-16T09:19:00.598Z,23.47
2019-01-16T09:22:38.414Z,22.13
2019-01-16T09:25:49.830Z,23.03
2019-01-16T09:29:11.122Z,23.33
2019-01-16T09:32:36.467Z,21.20
2019-01-16T09:36:04.742Z,22.67
2019-01-16T09:39:21.889Z,19.50
2019-01-16T09:42:40.362Z,18.80
2019-01-16T09:46:08.404Z,19.53
2019-01-16T09:49:43.031Z,19.07
2019-01-16T09:53:08.399Z,19.30
2019-01-16T09:56:36.158Z,18.50
2019-01-16T10:00:16.898Z,15.10
2019-01-16T10:03:38.254Z,14.53
2019-01-16T10:07:06.875Z,16.47
2019-01-16T10:10:28.638Z,18.73
2019-01-16T10:13:57.335Z,18.77
2019-01-16T10:17:29.002Z,11.93
2019-01-16T10:20:55.652Z,14.73
2019-01-16T10:24:17.659Z,16.50
2019-01-16T10:27:40.230Z,17.83
2019-01-16T10:31:01.239Z,17.27
2019-01-16T10:34:29.911Z,17.23
2019-01-16T10:37:41.986Z,13.13
2019-01-16T10:40:54.750Z,16.80
2019-01-16T10:44:20.410Z,12.27
2019-01-16T10:47:48.789Z,12.57
2019-01-16T10:51:17.607Z,16.65
2019-01-16T10:54:36.211Z,15.33
2019-01-16T10:58:04.741Z,14.23
2019-01-16T11:01:40.114Z,16.00
2019-01-16T11:05:20.731Z,15.70
2019-01-16T11:08:37.947Z,15.37
2019-01-16T11:11:54.082Z,14.17
2019-01-16T11:15:15.194Z,14.97
2019-01-16T11:18:32.626Z,12.00
2019-01-16T11:21:57.998Z,13.53
2019-01-16T11:25:29.586Z,13.43
2019-01-16T11:28:57.986Z,10.83
2019-01-16T11:32:23.338Z,11.97
2019-01-16T11:35:51.603Z,10.83
2019-01-16T11:39:14.118Z,11.60
2019-01-16T11:42:36.646Z,10.03
2019-01-16T11:45:54.690Z,10.37
2019-01-16T11:49:15.630Z,9.43
2019-01-16T11:52:36.746Z,8.60
2019-01-16T11:55:59.253Z,9.80
2019-01-16T11:59:14.954Z,8.57
2019-01-16T12:02:38.628Z,8.57
2019-01-16T12:06:00.746Z,10.40
2019-01-16T12:09:35.395Z,8.47
2019-01-16T12:13:05.426Z,6.93
2019-01-16T12:16:33.938Z,6.93
2019-01-16T12:19:55.054Z,8.73
2019-01-16T12:23:16.270Z,8.20
2019-01-16T12:26:38.282Z,7.37
2019-01-16T12:29:56.118Z,7.80
2019-01-16T12:33:13.142Z,7.47
2019-01-16T12:36:47.518Z,7.77
2019-01-16T12:40:08.862Z,7.13
2019-01-16T12:43:24.474Z,6.22
2019-01-16T12:46:50.014Z,6.90
2019-01-16T12:50:15.146Z,6.23
2019-01-16T12:53:31.672Z,6.37
2019-01-16T12:56:58.803Z,5.63
2019-01-16T13:00:12.238Z,6.00
2019-01-16T13:03:37.506Z,5.80
2019-01-16T13:06:59.607Z,6.63
2019-01-16T13:10:25.310Z,6.50
2019-01-16T13:13:42.958Z,6.08
2019-01-16T13:17:11.362Z,6.60
2019-01-16T13:20:43.110Z,6.47
2019-01-16T13:23:56.499Z,5.35
2019-01-16T13:27:16.535Z,6.10
2019-01-16T13:30:37.722Z,6.47
2019-01-16T13:33:54.039Z,5.60
2019-01-16T13:37:14.142Z,4.33
2019-01-16T13:40:29.374Z,5.40
2019-01-16T13:43:48.747Z,5.40
2019-01-16T13:47:14.133Z,5.57
2019-01-16T13:50:27.081Z,5.62
2019-01-16T13:53:58.714Z,4.83
2019-01-16T13:57:30.349Z,6.30
2019-01-16T14:00:54.070Z,5.10
2019-01-16T14:04:06.292Z,5.20
2019-01-16T14:07:28.835Z,4.50
2019-01-16T14:10:57.371Z,5.22
2019-01-16T14:14:28.923Z,3.97
2019-01-16T14:17:50.131Z,4.40
2019-01-16T14:21:08.254Z,4.83
2019-01-16T14:24:48.982Z,4.03
2019-01-16T14:28:11.074Z,4.47
2019-01-16T14:31:36.360Z,3.98
2019-01-16T14:34:59.142Z,4.43
2019-01-16T14:38:24.962Z,3.90
2019-01-16T14:41:59.575Z,3.87
2019-01-16T14:45:26.343Z,4.00
2019-01-16T14:48:46.846Z,4.12
2019-01-16T14:52:27.538Z,3.63
2019-01-16T14:55:53.107Z,3.77
2019-01-16T14:59:18.491Z,2.90
2019-01-16T15:02:46.864Z,3.27
2019-01-16T15:06:00.166Z,2.80
2019-01-16T15:09:32.910Z,2.75
2019-01-16T15:12:54.045Z,3.02
2019-01-16T15:16:07.302Z,2.57
2019-01-16T15:19:28.422Z,2.75
2019-01-16T15:22:53.890Z,2.77
2019-01-16T15:26:22.203Z,2.73
2019-01-16T15:29:44.749Z,2.90
2019-01-16T15:33:05.955Z,3.03
2019-01-16T15:36:37.906Z,2.13
2019-01-16T15:39:51.386Z,2.90
2019-01-16T15:43:12.583Z,2.80
2019-01-16T15:46:25.714Z,2.80
2019-01-16T15:49:46.782Z,2.77
2019-01-16T15:53:18.081Z,2.90
2019-01-16T15:56:39.872Z,2.90
2019-01-16T15:59:56.733Z,2.53
2019-01-16T16:03:31.203Z,2.20
2019-01-16T16:06:56.790Z,2.67
2019-01-16T16:10:18.163Z,3.00
2019-01-16T16:13:43.642Z,2.87
2019-01-16T16:17:04.974Z,2.40
2019-01-16T16:20:27.318Z,2.60
2019-01-16T16:23:46.916Z,3.13
2019-01-16T16:27:07.846Z,3.33
2019-01-16T16:30:50.170Z,3.43
2019-01-16T16:34:25.146Z,3.10
2019-01-16T16:37:56.790Z,3.07
2019-01-16T16:41:34.547Z,3.00
2019-01-16T16:44:57.278Z,2.93
2019-01-16T16:48:20.494Z,3.40
2019-01-16T16:51:49.565Z,3.47
2019-01-16T16:55:10.735Z,3.35
2019-01-16T16:58:42.282Z,3.12
2019-01-16T17:02:07.849Z,3.17
2019-01-16T17:05:26.817Z,3.90
2019-01-16T17:08:44.814Z,2.53
2019-01-16T17:12:07.726Z,3.40
2019-01-16T17:15:29.258Z,3.93
2019-01-16T17:18:50.487Z,2.70
2019-01-16T17:22:22.009Z,2.97
2019-01-16T17:25:38.518Z,3.70
2019-01-16T17:29:03.637Z,2.90
2019-01-16T17:32:25.070Z,4.00
2019-01-16T17:35:47.549Z,3.63
2019-01-16T17:39:01.138Z,4.03
2019-01-16T17:42:22.018Z,3.53
2019-01-16T17:45:43.255Z,3.83
2019-01-16T17:49:08.745Z,1.90
2019-01-16T17:52:29.962Z,3.70
2019-01-16T17:55:50.360Z,3.00
2019-01-16T17:59:01.506Z,3.63
2019-01-16T18:02:14.467Z,3.97
2019-01-16T18:05:28.316Z,4.17
2019-01-16T18:08:48.814Z,4.00
2019-01-16T18:12:23.145Z,4.67
2019-01-16T18:15:41.999Z,4.60
2019-01-16T18:19:04.546Z,4.15
2019-01-16T18:22:16.347Z,4.20
2019-01-16T18:25:44.677Z,3.83
2019-01-16T18:29:09.430Z,3.77
2019-01-16T18:32:32.598Z,4.03
2019-01-16T18:36:02.138Z,4.37
2019-01-16T18:39:30.231Z,4.00
2019-01-16T18:42:46.795Z,4.47
2019-01-16T18:46:16.158Z,4.40
2019-01-16T18:49:47.614Z,4.40
2019-01-16T18:53:10.832Z,5.40
2019-01-16T18:56:42.190Z,4.93
2019-01-16T18:59:58.896Z,3.67
2019-01-16T19:03:21.431Z,4.40
2019-01-16T19:06:42.962Z,5.17
2019-01-16T19:10:02.238Z,4.83
2019-01-16T19:13:32.120Z,4.73
2019-01-16T19:17:06.469Z,4.90
2019-01-16T19:20:24.470Z,4.43
2019-01-16T19:23:50.254Z,4.62
2019-01-16T19:27:15.734Z,5.47
2019-01-16T19:30:37.012Z,4.77
2019-01-16T19:34:00.823Z,5.03
2019-01-16T19:37:22.578Z,4.57
2019-01-16T19:40:48.007Z,4.53
2019-01-16T19:44:09.278Z,3.90
2019-01-16T19:47:30.711Z,5.67
2019-01-16T19:50:56.174Z,3.90
2019-01-16T19:54:17.190Z,4.30
2019-01-16T19:57:38.433Z,4.13
2019-01-16T20:00:59.890Z,4.20
2019-01-16T20:04:26.058Z,4.37
2019-01-16T20:07:54.674Z,4.17
2019-01-16T20:11:17.191Z,4.57
2019-01-16T20:14:54.946Z,4.00
2019-01-16T20:18:16.138Z,4.10
2019-01-16T20:21:32.106Z,5.40
2019-01-16T20:25:00.128Z,5.03
2019-01-16T20:28:21.367Z,4.13
2019-01-16T20:31:42.797Z,4.27
2019-01-16T20:35:01.084Z,4.97
2019-01-16T20:38:22.470Z,5.00
2019-01-16T20:41:54.406Z,4.30
2019-01-16T20:45:28.851Z,4.17
2019-01-16T20:49:00.387Z,4.77
2019-01-16T20:52:23.110Z,4.50
2019-01-16T20:55:51.866Z,4.60
2019-01-16T20:59:32.733Z,4.00
2019-01-16T21:02:54.626Z,4.40
2019-01-16T21:06:19.954Z,5.93
2019-01-16T21:09:41.210Z,4.97
2019-01-16T21:13:13.130Z,5.33
2019-01-16T21:16:35.804Z,5.27
2019-01-16T21:20:06.931Z,5.63
2019-01-16T21:23:29.462Z,4.87
2019-01-16T21:27:04.099Z,5.30
2019-01-16T21:30:31.970Z,5.50
2019-01-16T21:33:59.142Z,5.80
2019-01-16T21:37:18.918Z,5.27
2019-01-16T21:40:41.458Z,4.90
2019-01-16T21:44:22.148Z,5.72
2019-01-16T21:47:43.290Z,5.60
2019-01-16T21:51:02.531Z,5.87
2019-01-16T21:54:14.126Z,5.60
2019-01-16T21:57:36.979Z,5.10
2019-01-16T22:01:14.770Z,5.10
2019-01-16T22:04:55.226Z,5.70
2019-01-16T22:08:15.963Z,4.60
2019-01-16T22:11:36.854Z,5.73
2019-01-16T22:14:57.877Z,6.43
2019-01-16T22:18:29.331Z,6.37
2019-01-16T22:21:51.882Z,6.50
2019-01-16T22:25:17.514Z,6.33
2019-01-16T22:28:42.774Z,6.13
2019-01-16T22:32:01.481Z,7.07
2019-01-16T22:35:23.715Z,6.43
2019-01-16T22:38:36.240Z,7.27
2019-01-16T22:42:02.991Z,7.10
2019-01-16T22:45:25.144Z,6.70
2019-01-16T22:48:48.266Z,7.47
2019-01-16T22:52:14.605Z,6.73
2019-01-16T22:55:36.082Z,6.20
2019-01-16T22:58:52.182Z,6.43
2019-01-16T23:02:17.762Z,6.83
2019-01-16T23:05:55.266Z,6.40
2019-01-16T23:09:13.078Z,6.30
2019-01-16T23:12:47.447Z,5.93
2019-01-16T23:16:14.747Z,5.70
2019-01-16T23:19:30.515Z,7.23
2019-01-16T23:22:49.925Z,5.67
2019-01-16T23:26:10.188Z,6.23
2019-01-16T23:29:27.248Z,6.23
2019-01-16T23:32:45.042Z,6.43
2019-01-16T23:36:06.434Z,5.97
2019-01-16T23:39:38.107Z,6.83
2019-01-16T23:43:06.662Z,6.73
2019-01-16T23:46:29.150Z,6.10
2019-01-16T23:49:50.719Z,7.20
2019-01-16T23:53:11.858Z,6.43
2019-01-16T23:56:27.438Z,7.27
2019-01-16T23:59:48.562Z,6.37
